Time;durP1;ratioP1;P1;durP2;ratioP2;P2;SDS_P1;SDS_P2;PMS_P1;PMS_P2;Temp;Humidity;BMP_temperature;BMP_pressure;BME280_temperature;BME280_humidity;BME280_pressure;Samples;Min_cycle;Max_cycle;Signal;HPM_P1;HPM_P2
2023/04/22 00:00:27;;;;;;;8.07;5.55;;;;;;;11.98;100.00;100912.63;10275978;28;20041;-71
2023/04/22 00:05:28;;;;;;;9.43;5.90;;;;;;;11.64;100.00;100899.88;10249829;28;20039;-70
2023/04/22 00:10:28;;;;;;;8.80;5.95;;;;;;;11.44;100.00;100900.50;10236756;28;20039;-70
2023/04/22 00:15:29;;;;;;;16.40;6.50;;;;;;;11.49;100.00;100922.63;10236947;28;20046;-70
2023/04/22 00:20:31;;;;;;;10.30;5.85;;;;;;;11.44;100.00;100906.00;10220936;28;20055;-70
2023/04/22 00:25:32;;;;;;;10.40;6.93;;;;;;;11.36;100.00;100922.19;10237150;28;20039;-70
2023/04/22 00:30:33;;;;;;;8.23;6.32;;;;;;;11.13;100.00;100893.81;10220155;28;20035;-70
2023/04/22 00:35:34;;;;;;;9.30;6.63;;;;;;;11.04;100.00;100907.22;10236518;28;20043;-70
2023/04/22 00:40:34;;;;;;;9.68;7.20;;;;;;;11.02;100.00;100909.41;10266237;28;20461;-70
2023/04/22 00:45:35;;;;;;;9.90;6.75;;;;;;;10.83;100.00;100894.25;10219516;28;20139;-70
2023/04/22 00:50:36;;;;;;;11.52;6.60;;;;;;;10.68;100.00;100887.44;10220691;28;20067;-70
2023/04/22 00:55:36;;;;;;;8.40;6.43;;;;;;;10.80;100.00;100912.13;10225818;28;20039;-70
2023/04/22 01:00:37;;;;;;;9.02;6.53;;;;;;;10.79;100.00;100899.47;10218433;28;20043;-71
2023/04/22 01:05:38;;;;;;;8.00;6.78;;;;;;;10.78;100.00;100897.78;10235605;28;20118;-70
2023/04/22 01:10:38;;;;;;;14.00;7.97;;;;;;;10.70;100.00;100874.25;10246772;28;20062;-70
2023/04/22 01:15:39;;;;;;;11.32;7.45;;;;;;;10.71;100.00;100872.38;10228001;28;20095;-70
2023/04/22 01:20:39;;;;;;;8.63;6.80;;;;;;;10.65;100.00;100859.63;10265569;28;20043;-71
2023/04/22 01:25:40;;;;;;;11.98;6.93;;;;;;;10.63;100.00;100861.78;10266056;28;20035;-70
2023/04/22 01:30:41;;;;;;;12.70;7.68;;;;;;;10.53;100.00;100845.97;10233480;28;20043;-71
2023/04/22 01:35:41;;;;;;;9.20;7.90;;;;;;;10.53;100.00;100851.47;10233678;28;20114;-71
2023/04/22 01:40:42;;;;;;;9.73;8.00;;;;;;;10.58;100.00;100854.28;10265162;28;20558;-70
2023/04/22 01:45:42;;;;;;;13.63;8.65;;;;;;;10.50;100.00;100849.25;10232227;28;20051;-71
2023/04/22 01:50:43;;;;;;;12.15;8.48;;;;;;;10.36;100.00;100846.00;10251461;28;20039;-70
2023/04/22 01:55:44;;;;;;;10.98;8.50;;;;;;;10.22;100.00;100851.00;10217266;28;20065;-71
2023/04/22 02:00:44;;;;;;;12.38;8.30;;;;;;;10.04;100.00;100862.28;10248603;28;20043;-71
2023/04/22 02:05:45;;;;;;;12.98;8.50;;;;;;;9.85;100.00;100857.03;10248438;28;20039;-70
2023/04/22 02:10:45;;;;;;;13.07;9.15;;;;;;;9.57;100.00;100843.34;10248447;28;20035;-71
2023/04/22 02:15:46;;;;;;;15.65;10.13;;;;;;;9.43;100.00;100849.19;10232416;28;20035;-69
2023/04/22 02:20:46;;;;;;;13.70;9.65;;;;;;;9.25;100.00;100841.97;10232391;28;20061;-70
2023/04/22 02:25:48;;;;;;;13.80;10.05;;;;;;;9.03;100.00;100833.59;10248441;28;20086;-70
2023/04/22 02:30:49;;;;;;;14.93;10.40;;;;;;;8.91;100.00;100838.31;10232317;28;20062;-70
2023/04/22 02:35:49;;;;;;;12.85;9.73;;;;;;;8.83;100.00;100834.03;10231572;28;20139;-71
2023/04/22 02:40:50;;;;;;;11.65;9.95;;;;;;;8.66;100.00;100828.47;10231932;28;20039;-70
2023/04/22 02:45:50;;;;;;;18.85;12.93;;;;;;;8.49;100.00;100811.09;10231905;28;20102;-71
2023/04/22 02:50:51;;;;;;;17.63;13.13;;;;;;;8.39;100.00;100821.81;10248378;28;20037;-71
2023/04/22 02:55:54;;;;;;;18.00;12.77;;;;;;;8.16;100.00;100789.75;10260286;28;20043;-71
2023/04/22 03:00:56;;;;;;;18.90;13.65;;;;;;;8.17;100.00;100802.41;10255566;28;20035;-70
2023/04/22 03:05:57;;;;;;;18.70;13.15;;;;;;;8.09;100.00;100817.31;10288902;28;20053;-71
2023/04/22 03:10:57;;;;;;;21.17;14.82;;;;;;;7.74;100.00;100776.22;10255264;28;20031;-70
2023/04/22 03:15:58;;;;;;;18.00;14.75;;;;;;;7.93;100.00;100812.56;10257193;28;20040;-70
2023/04/22 03:20:59;;;;;;;21.08;15.18;;;;;;;7.79;100.00;100801.84;10230248;28;20042;-70
2023/04/22 03:26:00;;;;;;;21.52;14.55;;;;;;;7.68;100.00;100792.50;10253295;28;20039;-71
2023/04/22 03:31:00;;;;;;;20.80;15.27;;;;;;;7.67;100.00;100792.78;10253976;28;20044;-70
2023/04/22 03:36:01;;;;;;;22.35;15.88;;;;;;;7.60;100.00;100776.41;10238299;28;20098;-70
2023/04/22 03:41:01;;;;;;;24.20;16.67;;;;;;;7.63;100.00;100786.09;10255237;28;20039;-71
2023/04/22 03:46:02;;;;;;;21.15;15.90;;;;;;;7.67;100.00;100781.81;10278573;28;20066;-70
2023/04/22 03:51:02;;;;;;;17.50;14.55;;;;;;;7.66;100.00;100767.25;10309216;28;20047;-70
2023/04/22 03:56:03;;;;;;;21.52;15.63;;;;;;;7.71;100.00;100765.72;10294369;28;20308;-71
2023/04/22 04:01:04;;;;;;;18.80;15.45;;;;;;;7.67;100.00;100741.53;10261472;28;20487;-70
2023/04/22 04:06:05;;;;;;;16.30;14.20;;;;;;;7.81;100.00;100761.31;10277048;28;20043;-70
2023/04/22 04:11:05;;;;;;;19.25;14.05;;;;;;;7.75;100.00;100748.56;10277652;28;20042;-70
2023/04/22 04:16:05;;;;;;;17.35;13.93;;;;;;;7.79;100.00;100747.03;10293620;28;20039;-70
2023/04/22 04:21:06;;;;;;;18.55;13.55;;;;;;;7.70;100.00;100715.56;10276300;28;20045;-70
2023/04/22 04:26:07;;;;;;;18.83;13.50;;;;;;;7.80;100.00;100726.75;10293407;28;20066;-70
2023/04/22 04:31:07;;;;;;;16.42;12.65;;;;;;;7.86;100.00;100723.06;10276110;28;20039;-71
2023/04/22 04:36:09;;;;;;;21.60;13.07;;;;;;;8.01;100.00;100729.94;10275994;28;20035;-70
2023/04/22 04:41:09;;;;;;;17.98;13.30;;;;;;;7.98;100.00;100722.19;10246443;28;20078;-70
2023/04/22 04:46:10;;;;;;;16.73;12.43;;;;;;;8.10;100.00;100747.69;10252370;28;20058;-71
2023/04/22 04:51:10;;;;;;;16.88;13.32;;;;;;;8.09;100.00;100730.41;10236265;28;20040;-71
2023/04/22 04:56:11;;;;;;;14.63;12.23;;;;;;;8.11;100.00;100743.06;10251234;28;20031;-70
2023/04/22 05:01:12;;;;;;;18.17;13.20;;;;;;;8.07;100.00;100739.94;10241354;28;20071;-71
2023/04/22 05:06:12;;;;;;;16.00;13.13;;;;;;;8.10;100.00;100742.19;10266241;28;20055;-71
2023/04/22 05:11:13;;;;;;;16.88;12.60;;;;;;;8.02;100.00;100721.50;10250926;28;20046;-71
2023/04/22 05:16:13;;;;;;;16.52;13.80;;;;;;;8.24;100.00;100732.63;10252500;28;20039;-71
2023/04/22 05:21:15;;;;;;;17.73;13.35;;;;;;;7.98;100.00;100689.28;10249609;28;20047;-71
2023/04/22 05:26:16;;;;;;;16.05;12.73;;;;;;;8.32;100.00;100733.34;10257414;28;20091;-71
2023/04/22 05:31:16;;;;;;;16.00;12.32;;;;;;;8.49;100.00;100750.72;10273781;28;20038;-71
2023/04/22 05:36:17;;;;;;;19.70;12.82;;;;;;;8.64;100.00;100741.94;10274706;28;20046;-71
2023/04/22 05:41:17;;;;;;;18.75;13.00;;;;;;;8.81;100.00;100731.88;10262872;28;20070;-70
2023/04/22 05:46:17;;;;;;;21.30;12.00;;;;;;;9.17;100.00;100740.75;10248943;28;20513;-71
2023/04/22 05:51:18;;;;;;;17.02;12.13;;;;;;;9.52;100.00;100745.16;10250072;28;20035;-72
2023/04/22 05:56:19;;;;;;;14.52;11.63;;;;;;;9.71;100.00;100734.72;10249700;28;20039;-71
2023/04/22 06:01:20;;;;;;;18.33;12.30;;;;;;;9.94;100.00;100735.59;10250701;28;20074;-71
2023/04/22 06:06:20;;;;;;;18.45;11.63;;;;;;;10.09;100.00;100739.41;10249664;28;20051;-71
2023/04/22 06:11:21;;;;;;;14.95;11.77;;;;;;;10.23;100.00;100728.00;10262854;28;20042;-70
2023/04/22 06:16:22;;;;;;;18.55;11.23;;;;;;;10.38;100.00;100736.50;10261775;28;20080;-71
2023/04/22 06:21:22;;;;;;;13.50;11.25;;;;;;;10.55;100.00;100750.19;10231999;28;20051;-71
2023/04/22 06:26:23;;;;;;;16.77;10.90;;;;;;;10.68;100.00;100747.03;10264978;28;20388;-69
2023/04/22 06:31:23;;;;;;;17.20;11.85;;;;;;;10.83;100.00;100745.53;10265330;28;20062;-71
2023/04/22 06:36:24;;;;;;;17.73;11.45;;;;;;;10.88;100.00;100726.31;10264601;28;20063;-71
2023/04/22 06:41:25;;;;;;;16.85;11.52;;;;;;;11.03;100.00;100739.41;10294125;28;20463;-71
2023/04/22 06:46:25;;;;;;;14.65;10.98;;;;;;;11.14;100.00;100735.69;10271406;28;20034;-70
2023/04/22 06:51:26;;;;;;;13.45;10.32;;;;;;;11.35;100.00;100736.69;10289669;28;20035;-71
2023/04/22 06:56:26;;;;;;;12.05;10.10;;;;;;;11.50;100.00;100725.75;10290167;28;20054;-71
2023/04/22 07:01:27;;;;;;;12.82;10.15;;;;;;;11.61;100.00;100701.03;10280084;28;20669;-71
2023/04/22 07:06:27;;;;;;;14.77;10.27;;;;;;;11.92;100.00;100721.38;10296902;28;20062;-70
2023/04/22 07:11:30;;;;;;;12.02;9.68;;;;;;;12.14;100.00;100721.22;10272717;28;20072;-71
2023/04/22 07:16:30;;;;;;;16.02;10.10;;;;;;;12.01;100.00;100666.50;10257041;28;20099;-71
2023/04/22 07:21:31;;;;;;;13.07;9.52;;;;;;;12.50;100.00;100705.63;10221679;28;20050;-71
2023/04/22 07:26:33;;;;;;;14.00;9.63;;;;;;;12.56;100.00;100700.94;10271431;28;20031;-71
2023/04/22 07:31:36;;;;;;;17.50;9.60;;;;;;;13.03;100.00;100710.16;10240117;28;20039;-71
2023/04/22 07:36:37;;;;;;;10.93;8.75;;;;;;;13.29;100.00;100695.28;10285387;28;20106;-71
2023/04/22 07:41:37;;;;;;;9.93;8.02;;;;;;;13.61;100.00;100704.38;10276499;28;20102;-71
2023/04/22 07:46:38;;;;;;;13.43;9.38;;;;;;;13.80;100.00;100702.69;10260936;28;20133;-71
2023/04/22 07:51:39;;;;;;;12.13;8.15;;;;;;;14.03;100.00;100697.63;10295193;28;20055;-71
2023/04/22 07:56:40;;;;;;;12.45;8.60;;;;;;;14.33;100.00;100705.00;10276740;28;20137;-71
2023/04/22 08:01:40;;;;;;;10.18;8.25;;;;;;;14.51;100.00;100700.75;10248550;28;20054;-71
2023/04/22 08:06:41;;;;;;;9.73;8.02;;;;;;;14.78;100.00;100699.53;10275277;28;20113;-71
2023/04/22 08:11:41;;;;;;;11.30;7.70;;;;;;;14.72;100.00;100680.16;10260468;28;20042;-71
2023/04/22 08:16:42;;;;;;;10.63;8.77;;;;;;;14.94;100.00;100676.13;10253177;28;20040;-71
2023/04/22 08:21:43;;;;;;;12.35;7.30;;;;;;;15.07;100.00;100669.94;10260587;28;20093;-72
2023/04/22 08:26:43;;;;;;;9.05;7.47;;;;;;;15.37;100.00;100656.91;10293962;28;20035;-71
2023/04/22 08:31:44;;;;;;;11.07;7.78;;;;;;;15.88;100.00;100650.06;10275918;28;20034;-73
2023/04/22 08:36:44;;;;;;;13.32;6.80;;;;;;;16.12;100.00;100650.00;10293307;28;20045;-71
2023/04/22 08:41:45;;;;;;;8.88;6.10;;;;;;;16.40;100.00;100628.81;10276994;28;20595;-71
2023/04/22 08:46:47;;;;;;;11.77;6.80;;;;;;;16.67;100.00;100622.56;10275138;28;20035;-72
2023/04/22 08:51:48;;;;;;;10.98;6.53;;;;;;;16.87;100.00;100635.38;10259260;28;20102;-71
2023/04/22 08:56:49;;;;;;;8.68;7.13;;;;;;;16.72;100.00;100618.88;10292574;28;20053;-72
2023/04/22 09:01:52;;;;;;;9.07;6.50;;;;;;;16.79;100.00;100613.78;10274664;28;20073;-72
2023/04/22 09:06:52;;;;;;;9.45;6.22;;;;;;;16.96;100.00;100607.69;10290120;28;20042;-71
2023/04/22 09:11:53;;;;;;;9.75;7.22;;;;;;;17.30;100.00;100617.66;10292363;28;20035;-72
2023/04/22 09:16:53;;;;;;;8.35;6.63;;;;;;;17.61;100.00;100617.94;10234597;28;20039;-72
2023/04/22 09:21:57;;;;;;;7.20;5.72;;;;;;;18.05;100.00;100621.28;10255587;28;20038;-71
2023/04/22 09:26:57;;;;;;;10.77;6.32;;;;;;;18.21;100.00;100605.88;10290401;28;20139;-73
2023/04/22 09:31:58;;;;;;;10.25;5.85;;;;;;;18.15;100.00;100593.19;10290598;28;20058;-73
2023/04/22 09:36:59;;;;;;;9.18;6.20;;;;;;;18.41;100.00;100595.41;10274677;28;20123;-73
2023/04/22 09:41:59;;;;;;;7.30;5.22;;;;;;;18.42;100.00;100580.31;10256732;28;20427;-73
2023/04/22 09:47:00;;;;;;;8.30;4.53;;;;;;;18.48;100.00;100579.06;10257137;28;20031;-72
2023/04/22 09:52:00;;;;;;;5.95;4.30;;;;;;;18.96;100.00;100572.91;10273394;28;20034;-74
2023/04/22 09:57:02;;;;;;;8.55;5.18;;;;;;;19.45;100.00;100573.84;10224627;28;20042;-72
2023/04/22 10:02:03;;;;;;;8.63;5.03;;;;;;;19.74;100.00;100555.72;10214890;28;20040;-74
2023/04/22 10:07:04;;;;;;;6.93;4.65;;;;;;;20.32;100.00;100562.09;10236751;28;20043;-73
2023/04/22 10:12:04;;;;;;;7.03;4.32;;;;;;;20.41;99.19;100548.13;10239012;28;20046;-73
2023/04/22 10:17:05;;;;;;;8.15;4.78;;;;;;;20.69;100.00;100543.84;10255945;28;20062;-73
2023/04/22 10:22:06;;;;;;;6.65;4.18;;;;;;;20.86;100.00;100528.19;10236883;28;20062;-73
2023/04/22 10:27:09;;;;;;;4.97;3.55;;;;;;;20.84;95.55;100508.94;10269442;28;20065;-72
2023/04/22 10:32:10;;;;;;;6.28;3.28;;;;;;;21.20;96.21;100513.25;10234542;28;20495;-73
2023/04/22 10:37:12;;;;;;;6.07;4.13;;;;;;;21.33;95.63;100519.78;10257448;28;20046;-73
2023/04/22 10:42:15;;;;;;;5.93;3.90;;;;;;;21.33;94.35;100505.78;10269733;28;20515;-73
2023/04/22 10:47:26;;;;;;;7.97;3.45;;;;;;;21.51;95.27;100507.41;10224257;28;20031;-72
2023/04/22 10:52:28;;;;;;;5.40;3.75;;;;;;;21.52;92.60;100499.84;10245043;28;20035;-72
2023/04/22 10:57:40;;;;;;;11.80;4.68;;;;;;;21.68;91.62;100500.06;10250192;28;20043;-72
2023/04/22 11:02:41;;;;;;;6.97;3.40;;;;;;;22.12;92.76;100493.00;10234533;28;20039;-72
2023/04/22 11:07:42;;;;;;;4.95;3.60;;;;;;;22.28;89.77;100489.59;10241788;28;20071;-72
2023/04/22 11:12:43;;;;;;;6.13;4.35;;;;;;;22.45;85.09;100463.38;10253893;28;20042;-72
2023/04/22 11:17:45;;;;;;;8.20;3.65;;;;;;;22.21;86.48;100469.69;10244450;28;20027;-76
2023/04/22 11:22:50;;;;;;;4.93;3.75;;;;;;;22.01;83.38;100443.28;10245857;28;20078;-78
2023/04/22 11:27:51;;;;;;;4.70;2.75;;;;;;;22.26;83.61;100453.50;10270347;28;20366;-77
2023/04/22 11:32:56;;;;;;;6.13;3.28;;;;;;;22.13;83.83;100455.38;10238863;28;20442;-78
2023/04/22 11:37:57;;;;;;;3.72;3.00;;;;;;;22.23;82.76;100448.56;10254538;28;20047;-81
2023/04/22 11:42:59;;;;;;;4.65;3.40;;;;;;;22.62;82.64;100466.03;10228507;28;20075;-76
2023/04/22 11:48:00;;;;;;;3.15;2.40;;;;;;;22.89;82.23;100458.94;10258411;28;20042;-76
2023/04/22 11:53:08;;;;;;;5.45;2.47;;;;;;;23.30;78.62;100433.88;10277941;28;20066;-81
2023/04/22 11:58:09;;;;;;;2.80;2.33;;;;;;;23.68;77.80;100415.78;10262322;28;20121;-84
2023/04/22 12:03:13;;;;;;;5.05;2.30;;;;;;;24.27;79.29;100436.84;10297060;28;20049;-81
2023/04/22 12:08:17;;;;;;;4.22;3.15;;;;;;;24.77;76.03;100432.63;10294252;28;20050;-83
2023/04/22 12:13:31;;;;;;;4.90;3.70;;;;;;;25.71;75.25;100424.47;10293162;28;20097;-81
2023/04/22 12:18:33;;;;;;;5.10;3.83;;;;;;;25.94;74.75;100416.13;10244605;28;20038;-80
2023/04/22 12:24:03;;;;;;;4.18;3.75;;;;;;;26.07;68.87;100414.00;10294644;28;20359;-81
2023/04/22 12:29:04;;;;;;;5.00;3.70;;;;;;;25.66;69.36;100422.75;10276871;28;20495;-79
2023/04/22 12:34:04;;;;;;;6.13;3.55;;;;;;;24.97;70.89;100444.78;10274531;28;20039;-77
2023/04/22 12:39:05;;;;;;;4.22;3.17;;;;;;;25.30;71.99;100416.31;10275734;28;20043;-77
2023/04/22 12:44:07;;;;;;;6.55;3.92;;;;;;;24.35;68.06;100417.00;10274744;28;20526;-78
2023/04/22 12:49:08;;;;;;;3.85;3.38;;;;;;;23.69;71.87;100421.06;10255891;28;20524;-77
2023/04/22 12:54:09;;;;;;;4.72;3.78;;;;;;;22.94;73.45;100416.63;10273976;28;20510;-76
2023/04/22 12:59:10;;;;;;;6.97;3.72;;;;;;;23.17;73.79;100421.78;10259448;28;20750;-77
2023/04/22 13:04:10;;;;;;;5.13;3.60;;;;;;;23.14;76.23;100386.81;10258677;28;20077;-77
2023/04/22 13:09:11;;;;;;;9.77;4.57;;;;;;;23.17;74.11;100402.13;10258861;28;20055;-76
2023/04/22 13:14:12;;;;;;;7.63;3.47;;;;;;;23.35;78.06;100408.34;10241652;28;20054;-76
2023/04/22 13:19:12;;;;;;;7.15;4.85;;;;;;;24.27;74.32;100403.91;10226274;28;20110;-76
2023/04/22 13:24:13;;;;;;;6.05;4.53;;;;;;;24.14;75.49;100396.69;10258861;28;20039;-75
2023/04/22 13:29:14;;;;;;;6.00;4.78;;;;;;;23.64;74.91;100387.56;10273238;28;20043;-76
2023/04/22 13:34:14;;;;;;;6.28;3.85;;;;;;;23.86;76.14;100377.03;10273350;28;20077;-77
2023/04/22 13:39:16;;;;;;;6.05;4.13;;;;;;;23.36;75.71;100356.63;10224645;28;20395;-76
2023/04/22 13:44:17;;;;;;;5.97;4.25;;;;;;;23.45;76.43;100360.09;10239592;28;20050;-75
2023/04/22 13:49:17;;;;;;;3.85;3.05;;;;;;;24.10;75.66;100345.16;10269702;28;20049;-75
2023/04/22 13:54:18;;;;;;;8.13;4.03;;;;;;;25.42;73.21;100322.34;10273028;28;20051;-76
2023/04/22 13:59:18;;;;;;;9.45;4.68;;;;;;;25.68;69.75;100306.81;10256850;28;20035;-74
2023/04/22 14:04:19;;;;;;;5.35;4.85;;;;;;;24.92;71.83;100309.91;10270281;28;20050;-76
2023/04/22 14:09:19;;;;;;;8.82;4.53;;;;;;;24.56;72.32;100306.22;10236549;28;20122;-76
2023/04/22 14:14:20;;;;;;;5.72;4.15;;;;;;;25.45;75.42;100307.53;10271598;28;20046;-79
2023/04/22 14:19:22;;;;;;;7.65;4.20;;;;;;;25.29;71.68;100270.97;10273281;28;20063;-77
2023/04/22 14:24:23;;;;;;;5.68;4.50;;;;;;;23.97;72.16;100283.34;10256179;28;20109;-77
2023/04/22 14:29:24;;;;;;;6.13;4.90;;;;;;;22.80;74.70;100266.56;10256423;28;20116;-76
2023/04/22 14:34:25;;;;;;;5.07;4.28;;;;;;;21.71;78.83;100264.06;10224011;28;20050;-77
2023/04/22 14:39:26;;;;;;;6.35;4.32;;;;;;;21.10;80.66;100293.34;10240567;28;20099;-74
2023/04/22 14:44:26;;;;;;;12.50;7.35;;;;;;;19.93;100.00;100352.31;10288556;28;20045;-79
2023/04/22 14:49:27;;;;;;;15.75;7.47;;;;;;;18.52;100.00;100391.38;10253409;28;20034;-82
2023/04/22 14:54:27;;;;;;;18.45;8.45;;;;;;;19.00;100.00;100377.81;10235764;28;20047;-80
2023/04/22 14:59:28;;;;;;;9.73;7.53;;;;;;;19.51;100.00;100365.09;10269635;28;20050;-79
2023/04/22 15:04:29;;;;;;;9.70;6.95;;;;;;;19.32;100.00;100343.09;10260382;28;20063;-78
2023/04/22 15:09:29;;;;;;;12.80;7.70;;;;;;;18.99;100.00;100340.72;10221346;28;20035;-71
2023/04/22 15:14:31;;;;;;;11.95;7.70;;;;;;;18.80;100.00;100345.75;10254158;28;20558;-78
2023/04/22 15:19:31;;;;;;;11.38;7.55;;;;;;;18.65;100.00;100350.59;10274785;28;20157;-77
2023/04/22 15:24:32;;;;;;;9.63;8.32;;;;;;;18.52;100.00;100345.91;10255765;28;20082;-77
2023/04/22 15:29:32;;;;;;;13.13;8.73;;;;;;;18.38;100.00;100342.44;10261495;28;20043;-76
2023/04/22 15:34:33;;;;;;;14.05;9.15;;;;;;;18.30;100.00;100342.06;10277544;28;20046;-76
2023/04/22 15:39:34;;;;;;;13.18;10.20;;;;;;;17.99;100.00;100335.63;10253853;28;20094;-76
2023/04/22 15:44:34;;;;;;;15.05;10.88;;;;;;;17.74;100.00;100354.59;10237685;28;20043;-76
2023/04/22 15:49:36;;;;;;;14.10;11.57;;;;;;;17.51;100.00;100376.81;10255205;28;20453;-75
2023/04/22 15:54:36;;;;;;;16.33;11.38;;;;;;;16.84;100.00;100373.81;10238804;28;20074;-76
2023/04/22 15:59:37;;;;;;;15.95;13.30;;;;;;;16.39;100.00;100415.19;10205809;28;20131;-80
2023/04/22 16:04:37;;;;;;;19.48;15.10;;;;;;;15.57;100.00;100413.69;10238038;28;20142;-78
2023/04/22 16:09:38;;;;;;;25.55;18.27;;;;;;;15.01;100.00;100421.59;10232599;28;20043;-80
2023/04/22 16:14:38;;;;;;;24.80;18.35;;;;;;;14.78;100.00;100459.28;10204690;28;20059;-80
2023/04/22 16:19:39;;;;;;;31.00;21.75;;;;;;;14.31;100.00;100532.78;10221632;28;20479;-83
2023/04/22 16:24:39;;;;;;;44.13;26.90;;;;;;;13.63;100.00;100453.22;10268221;28;20483;-77
2023/04/22 16:29:40;;;;;;;51.53;32.80;;;;;;;13.57;100.00;100451.59;10276013;28;20403;-91
2023/04/22 16:34:40;;;;;;;53.30;34.50;;;;;;;13.84;100.00;100503.72;10244136;28;20474;-91
2023/04/22 16:39:41;;;;;;;52.58;35.03;;;;;;;13.85;100.00;100508.97;10261566;28;20035;-83
2023/04/22 16:44:41;;;;;;;53.83;35.50;;;;;;;13.71;100.00;100510.72;10242896;28;20035;-83
2023/04/22 16:49:42;;;;;;;53.35;37.45;;;;;;;13.69;100.00;100505.47;10219860;28;20054;-83
2023/04/22 16:54:42;;;;;;;54.53;36.70;;;;;;;13.82;100.00;100515.06;10264528;28;20062;-83
2023/04/22 16:59:43;;;;;;;49.67;35.58;;;;;;;13.80;100.00;100520.06;10241096;28;20039;-81
2023/04/22 17:04:43;;;;;;;52.45;34.70;;;;;;;13.66;100.00;100502.44;10211752;28;20046;-82
2023/04/22 17:09:44;;;;;;;57.50;35.83;;;;;;;13.58;100.00;100501.09;10239918;28;20035;-81
2023/04/22 17:14:45;;;;;;;43.78;30.10;;;;;;;13.69;100.00;100518.47;10247815;28;20115;-80
2023/04/22 17:19:45;;;;;;;31.88;23.60;;;;;;;13.66;100.00;100530.09;10277390;28;20031;-78
2023/04/22 17:24:46;;;;;;;35.58;25.65;;;;;;;13.49;100.00;100509.13;10239292;28;20039;-81
2023/04/22 17:29:46;;;;;;;34.88;25.00;;;;;;;13.42;100.00;100496.75;10220911;28;20054;-84
2023/04/22 17:34:47;;;;;;;33.40;23.92;;;;;;;13.53;100.00;100524.06;10260858;28;20047;-83
2023/04/22 17:39:47;;;;;;;35.63;24.40;;;;;;;13.42;100.00;100508.63;10265299;28;20047;-79
2023/04/22 17:44:48;;;;;;;32.47;22.67;;;;;;;13.48;100.00;100520.50;10250822;28;22035;-80
2023/04/22 17:49:49;;;;;;;31.15;20.92;;;;;;;13.39;100.00;100514.69;10249316;28;20035;-82
2023/04/22 17:54:49;;;;;;;28.77;20.42;;;;;;;13.33;100.00;100504.78;10249287;28;20797;-84
2023/04/22 17:59:50;;;;;;;27.77;20.45;;;;;;;13.06;100.00;100483.84;10230889;28;20461;-84
2023/04/22 18:04:51;;;;;;;24.25;19.42;;;;;;;13.20;100.00;100522.75;10268862;28;20034;-82
2023/04/22 18:09:51;;;;;;;29.15;21.85;;;;;;;13.09;100.00;100524.72;10254301;28;20030;-81
2023/04/22 18:14:52;;;;;;;27.75;21.00;;;;;;;12.92;100.00;100515.94;10254041;28;20062;-79
2023/04/22 18:19:53;;;;;;;28.15;21.70;;;;;;;12.90;100.00;100520.91;10276726;28;20051;-82
2023/04/22 18:24:53;;;;;;;32.65;24.30;;;;;;;12.73;100.00;100496.31;10269065;28;20039;-81
2023/04/22 18:29:54;;;;;;;31.88;23.77;;;;;;;12.90;100.00;100523.66;10269337;28;20039;-78
2023/04/22 18:34:55;;;;;;;30.90;23.60;;;;;;;12.76;100.00;100517.03;10223127;28;20047;-81
2023/04/22 18:39:56;;;;;;;30.65;23.70;;;;;;;12.81;100.00;100539.13;10231436;28;20479;-80
2023/04/22 18:44:56;;;;;;;37.90;26.48;;;;;;;12.74;100.00;100538.59;10296149;28;20073;-83
2023/04/22 18:49:57;;;;;;;32.33;24.48;;;;;;;12.59;100.00;100529.19;10270589;28;20037;-80
2023/04/22 18:54:57;;;;;;;33.33;25.35;;;;;;;12.60;100.00;100543.84;10243922;28;20054;-78
2023/04/22 18:59:58;;;;;;;41.00;30.73;;;;;;;12.41;100.00;100549.06;10229650;28;20042;-80
2023/04/22 19:04:59;;;;;;;66.22;48.92;;;;;;;12.14;100.00;100566.69;10294560;28;20039;-80
2023/04/22 19:09:59;;;;;;;60.90;42.70;;;;;;;11.79;100.00;100570.13;10244957;28;20031;-82
2023/04/22 19:15:00;;;;;;;46.80;31.20;;;;;;;11.42;100.00;100576.56;10228920;28;20031;-82
2023/04/22 19:20:00;;;;;;;47.88;32.63;;;;;;;11.28;100.00;100573.47;10229761;28;20079;-80
2023/04/22 19:25:04;;;;;;;52.08;34.97;;;;;;;11.07;100.00;100570.56;10220422;28;20035;-81
2023/04/22 19:30:05;;;;;;;49.15;32.08;;;;;;;11.04;100.00;100579.38;10245001;28;20077;-81
2023/04/22 19:35:07;;;;;;;40.15;28.02;;;;;;;10.81;100.00;100568.72;10244911;28;20038;-80
2023/04/22 19:40:08;;;;;;;35.88;24.58;;;;;;;10.70;100.00;100576.91;10243454;28;20043;-80
2023/04/22 19:45:09;;;;;;;43.65;26.67;;;;;;;10.73;100.00;100589.34;10215004;28;20058;-79
2023/04/22 19:50:10;;;;;;;37.72;23.80;;;;;;;10.61;100.00;100585.91;10229692;28;20062;-79
2023/04/22 19:55:11;;;;;;;39.33;24.20;;;;;;;10.26;100.00;100582.53;10259251;28;20364;-82
2023/04/22 20:00:12;;;;;;;47.42;25.27;;;;;;;10.11;100.00;100601.63;10222705;28;20137;-79
2023/04/22 20:05:13;;;;;;;44.45;23.85;;;;;;;9.94;100.00;100611.84;10258268;28;20031;-80
2023/04/22 20:10:14;;;;;;;50.60;26.83;;;;;;;9.85;100.00;100620.56;10243148;28;20038;-80
2023/04/22 20:15:15;;;;;;;52.15;27.20;;;;;;;9.69;100.00;100624.19;10274282;28;20042;-80
2023/04/22 20:20:16;;;;;;;50.42;25.65;;;;;;;9.60;100.00;100622.97;10244244;28;20102;-80
2023/04/22 20:25:17;;;;;;;51.25;27.25;;;;;;;9.64;100.00;100621.38;10242107;28;20034;-80
2023/04/22 20:30:17;;;;;;;44.90;23.83;;;;;;;9.43;100.00;100612.88;10202168;28;20519;-77
2023/04/22 20:35:18;;;;;;;55.28;28.00;;;;;;;9.50;100.00;100618.16;10186769;28;20562;-80
2023/04/22 20:40:20;;;;;;;48.38;26.95;;;;;;;9.49;100.00;100617.34;10238537;28;20046;-79
2023/04/22 20:45:21;;;;;;;50.08;25.45;;;;;;;9.44;100.00;100627.44;10207070;28;20115;-79
2023/04/22 20:50:21;;;;;;;41.20;23.17;;;;;;;9.37;100.00;100627.59;10228864;28;20035;-79
2023/04/22 20:55:22;;;;;;;49.15;23.25;;;;;;;9.28;100.00;100631.84;10213845;28;20143;-80
2023/04/22 21:00:23;;;;;;;42.00;22.92;;;;;;;9.29;100.00;100644.53;10220637;28;20042;-79
2023/04/22 21:05:24;;;;;;;42.80;21.65;;;;;;;9.15;100.00;100624.78;10232007;28;20126;-80
2023/04/22 21:10:25;;;;;;;37.22;19.95;;;;;;;9.11;100.00;100639.28;10255638;28;20062;-81
2023/04/22 21:15:25;;;;;;;36.55;20.40;;;;;;;9.08;100.00;100643.38;10256466;28;20058;-79
2023/04/22 21:20:26;;;;;;;32.33;19.13;;;;;;;8.96;100.00;100628.91;10217591;28;20050;-80
2023/04/22 21:25:27;;;;;;;32.72;18.55;;;;;;;8.95;100.00;100647.28;10273577;28;20043;-80
2023/04/22 21:30:28;;;;;;;33.05;20.42;;;;;;;9.08;100.00;100659.84;10258304;28;20094;-79
2023/04/22 21:35:28;;;;;;;37.42;19.58;;;;;;;9.11;100.00;100664.00;10241254;28;20081;-78
2023/04/22 21:40:36;;;;;;;44.10;21.33;;;;;;;9.15;100.00;100663.25;10612333;23;20391;-78
2023/04/22 21:45:36;;;;;;;41.65;19.95;;;;;;;9.03;100.00;100641.38;10432534;28;20128;-80
2023/04/22 21:50:38;;;;;;;37.63;20.67;;;;;;;9.17;100.00;100679.50;10421647;28;20041;-79
2023/04/22 21:55:38;;;;;;;34.10;20.38;;;;;;;9.19;100.00;100661.66;10400049;28;20068;-77
2023/04/22 22:00:39;;;;;;;32.80;19.20;;;;;;;8.26;100.00;100535.75;10425375;28;20080;-78
2023/04/22 22:05:39;;;;;;;33.90;19.40;;;;;;;8.92;100.00;100628.56;10398665;28;20045;-78
2023/04/22 22:10:41;;;;;;;38.20;19.92;;;;;;;8.99;100.00;100667.69;10403695;28;20060;-77
2023/04/22 22:15:42;;;;;;;36.53;21.05;;;;;;;8.77;100.00;100674.97;10412205;28;20045;-79
2023/04/22 22:20:43;;;;;;;37.40;19.08;;;;;;;8.58;100.00;100672.44;10411752;28;20055;-79
2023/04/22 22:25:43;;;;;;;40.47;21.35;;;;;;;8.47;100.00;100670.56;10361083;28;20054;-77
2023/04/22 22:30:44;;;;;;;41.72;24.20;;;;;;;8.30;100.00;100659.53;10334173;28;20498;-79
2023/04/22 22:35:45;;;;;;;45.45;25.13;;;;;;;8.55;100.00;100689.38;10367164;28;20030;-77